createdAt,value
2023-04-07T00:02:57.124Z,1419
2023-04-07T00:08:15.753Z,1428
2023-04-07T00:13:33.959Z,1444
2023-04-07T00:18:52.296Z,1457
2023-04-07T00:24:10.848Z,1474
2023-04-07T00:29:48.884Z,1479
2023-04-07T00:35:07.068Z,1483
2023-04-07T00:40:25.449Z,1484
2023-04-07T00:45:43.852Z,1484
2023-04-07T00:51:02.032Z,1481
2023-04-07T00:56:20.226Z,1478
2023-04-07T01:01:38.638Z,1476
2023-04-07T01:06:57.444Z,1481
2023-04-07T01:12:15.812Z,1478
2023-04-07T01:17:34.030Z,1480
2023-04-07T01:22:52.106Z,1484
2023-04-07T01:28:10.306Z,1489
2023-04-07T01:33:28.642Z,1500
2023-04-07T01:38:47.205Z,1532
2023-04-07T01:44:05.406Z,1531
2023-04-07T01:49:23.861Z,1537
2023-04-07T01:54:42.223Z,1538
2023-04-07T02:00:00.413Z,1538
2023-04-07T02:05:18.623Z,1529
2023-04-07T02:10:37.023Z,1558
2023-04-07T02:15:55.211Z,1560
2023-04-07T02:21:13.610Z,1565
2023-04-07T02:31:53.095Z,1576
2023-04-07T02:37:11.539Z,1575
2023-04-07T02:42:30.028Z,1572
2023-04-07T02:47:48.462Z,1578
2023-04-07T02:53:06.767Z,1566
2023-04-07T02:58:25.124Z,1574
2023-04-07T03:03:43.346Z,1576
2023-04-07T03:09:01.937Z,1587
2023-04-07T03:14:20.333Z,1592
2023-04-07T03:19:38.505Z,1583
2023-04-07T03:24:56.974Z,1602
2023-04-07T03:30:15.303Z,1605
2023-04-07T03:35:33.703Z,1633
2023-04-07T03:40:51.976Z,1656
2023-04-07T03:46:10.114Z,1652
2023-04-07T03:51:12.763Z,1618
2023-04-07T03:56:30.997Z,1601
2023-04-07T04:01:49.419Z,1573
2023-04-07T04:07:08.002Z,1565
2023-04-07T04:12:25.964Z,1561
2023-04-07T04:17:44.396Z,1551
2023-04-07T04:23:02.563Z,1540
2023-04-07T04:28:21.205Z,1530
2023-04-07T04:33:23.917Z,1540
2023-04-07T04:38:42.319Z,1530
2023-04-07T04:44:00.304Z,1500
2023-04-07T04:49:18.707Z,1217
2023-04-07T04:54:37.227Z,947
2023-04-07T04:59:55.840Z,1011
2023-04-07T05:05:14.340Z,1054
2023-04-07T05:10:33.194Z,1086
2023-04-07T05:15:51.927Z,1103
2023-04-07T05:21:10.544Z,1095
2023-04-07T05:26:28.731Z,1089
2023-04-07T05:31:47.111Z,1089
2023-04-07T05:37:05.456Z,1087
2023-04-07T05:42:23.688Z,1083
2023-04-07T05:47:41.935Z,1078
2023-04-07T05:53:00.243Z,1076
2023-04-07T05:58:18.636Z,1079
2023-04-07T06:03:36.994Z,1076
2023-04-07T06:08:55.520Z,1079
2023-04-07T06:14:14.075Z,1076
2023-04-07T06:19:32.570Z,1070
2023-04-07T06:24:50.976Z,1073
2023-04-07T06:30:09.198Z,1065
2023-04-07T06:35:27.817Z,1070
2023-04-07T06:40:46.262Z,1071
2023-04-07T06:46:05.827Z,1072
2023-04-07T06:51:24.203Z,1071
2023-04-07T06:56:42.354Z,1073
2023-04-07T07:02:01.430Z,1074
2023-04-07T07:07:20.012Z,1076
2023-04-07T07:12:38.436Z,1075
2023-04-07T07:17:56.892Z,1079
2023-04-07T07:23:15.106Z,1068
2023-04-07T07:28:33.467Z,1073
2023-04-07T07:33:51.652Z,1075
2023-04-07T07:39:10.047Z,1071
2023-04-07T07:44:28.805Z,1075
2023-04-07T07:49:50.761Z,1074
2023-04-07T07:55:08.797Z,1080
2023-04-07T08:00:27.195Z,1074
2023-04-07T08:05:45.586Z,1077
2023-04-07T08:11:04.241Z,1078
2023-04-07T08:16:22.650Z,1071
2023-04-07T08:21:40.819Z,1069
2023-04-07T08:26:59.231Z,1065
2023-04-07T08:32:17.561Z,1065
2023-04-07T08:37:35.978Z,1067
2023-04-07T08:42:54.339Z,1072
2023-04-07T08:48:12.669Z,1072
2023-04-07T08:53:31.101Z,1062
2023-04-07T08:58:49.214Z,1057
2023-04-07T09:04:07.425Z,1053
2023-04-07T09:09:26.902Z,1043
2023-04-07T09:14:44.881Z,1036
2023-04-07T09:20:03.272Z,1039
2023-04-07T09:25:21.776Z,1046
2023-04-07T09:30:39.969Z,1046
2023-04-07T09:35:58.358Z,1041
2023-04-07T09:41:16.859Z,1028
2023-04-07T09:46:35.632Z,1023
2023-04-07T09:51:38.213Z,1017
2023-04-07T09:56:56.858Z,1017
2023-04-07T10:02:14.910Z,1010
2023-04-07T10:07:33.381Z,1007
2023-04-07T10:12:51.555Z,996
2023-04-07T10:18:09.909Z,982
2023-04-07T10:23:28.280Z,977
2023-04-07T10:28:46.689Z,969
2023-04-07T10:34:05.072Z,970
2023-04-07T10:39:23.436Z,969
2023-04-07T10:44:42.528Z,963
2023-04-07T10:50:01.100Z,956
2023-04-07T10:55:19.458Z,952
2023-04-07T11:00:37.829Z,941
2023-04-07T11:05:56.019Z,935
2023-04-07T11:11:14.167Z,937
2023-04-07T11:16:32.445Z,926
2023-04-07T11:21:51.157Z,931
2023-04-07T11:27:12.604Z,934
2023-04-07T11:32:35.098Z,947
2023-04-07T11:37:53.588Z,955
2023-04-07T11:43:11.925Z,958
2023-04-07T11:48:32.252Z,966
2023-04-07T11:53:50.650Z,969
2023-04-07T11:59:09.158Z,973
2023-04-07T12:04:27.389Z,976
2023-04-07T12:09:45.975Z,988
2023-04-07T12:15:04.318Z,985
2023-04-07T12:20:23.092Z,993
2023-04-07T12:25:41.557Z,1000
2023-04-07T12:30:59.735Z,1007
2023-04-07T12:36:18.284Z,1005
2023-04-07T12:41:40.040Z,1007
2023-04-07T12:46:58.246Z,1007
2023-04-07T12:52:16.888Z,1013
2023-04-07T12:57:35.336Z,1016
2023-04-07T13:02:53.964Z,1015
2023-04-07T13:08:12.812Z,1019
2023-04-07T13:13:31.373Z,1017
2023-04-07T13:18:49.857Z,1018
2023-04-07T13:23:52.648Z,1017
2023-04-07T13:29:10.704Z,1019
2023-04-07T13:34:32.149Z,1016
2023-04-07T13:39:50.525Z,1017
2023-04-07T13:45:09.084Z,1007
2023-04-07T13:50:27.428Z,1003
2023-04-07T13:55:45.683Z,1005
2023-04-07T14:01:03.902Z,899
2023-04-07T14:06:22.226Z,833
2023-04-07T14:11:40.957Z,841
2023-04-07T14:16:59.564Z,835
2023-04-07T14:22:01.885Z,839
2023-04-07T14:27:20.349Z,875
2023-04-07T14:32:39.117Z,893
2023-04-07T14:37:57.845Z,902
2023-04-07T14:43:16.659Z,909
2023-04-07T14:48:34.956Z,908
2023-04-07T14:53:59.143Z,914
2023-04-07T14:59:17.469Z,961
2023-04-07T15:04:35.656Z,994
2023-04-07T15:09:54.501Z,1007
2023-04-07T15:15:12.973Z,1011
2023-04-07T15:20:31.197Z,1008
2023-04-07T15:25:50.721Z,1002
2023-04-07T15:31:09.217Z,1005
2023-04-07T15:36:28.020Z,1008
2023-04-07T15:41:53.042Z,1014
2023-04-07T15:46:55.804Z,1019
2023-04-07T15:52:13.922Z,1025
2023-04-07T15:57:31.882Z,1026
2023-04-07T16:02:50.256Z,1028
2023-04-07T16:08:08.962Z,1031
2023-04-07T16:13:31.511Z,1035
2023-04-07T16:18:49.917Z,1043
2023-04-07T16:24:08.474Z,1046
2023-04-07T16:29:26.620Z,1051
2023-04-07T16:34:45.293Z,1057
2023-04-07T16:40:03.732Z,1063
2023-04-07T16:45:22.227Z,1083
2023-04-07T16:50:40.492Z,1105
2023-04-07T16:55:59.002Z,1114
2023-04-07T17:01:17.172Z,1114
2023-04-07T17:06:35.640Z,1126
2023-04-07T17:11:53.835Z,1154
2023-04-07T17:17:12.554Z,1140
2023-04-07T17:22:30.923Z,1141
2023-04-07T17:27:49.105Z,1123
2023-04-07T17:33:07.551Z,1135
2023-04-07T17:38:26.614Z,1143
2023-04-07T17:43:45.027Z,1142
2023-04-07T17:49:03.694Z,1157
2023-04-07T17:54:21.891Z,1077
2023-04-07T17:59:40.080Z,1078
2023-04-07T18:04:58.319Z,1091
2023-04-07T18:10:16.944Z,1105
2023-04-07T18:15:35.015Z,1116
2023-04-07T18:20:53.349Z,1125
2023-04-07T18:26:12.159Z,1133
2023-04-07T18:31:30.808Z,1147
2023-04-07T18:36:49.216Z,1157
2023-04-07T18:42:07.545Z,1162
2023-04-07T18:47:25.632Z,1171
2023-04-07T18:52:43.831Z,1175
2023-04-07T18:58:02.291Z,1195
2023-04-07T19:03:20.876Z,1206
2023-04-07T19:08:39.555Z,1232
2023-04-07T19:13:58.398Z,1241
2023-04-07T19:19:16.406Z,1249
2023-04-07T19:24:34.957Z,1260
2023-04-07T19:29:53.480Z,1271
2023-04-07T19:35:12.068Z,1274
2023-04-07T19:40:30.421Z,1273
2023-04-07T19:45:51.406Z,1292
2023-04-07T19:51:09.603Z,1296
2023-04-07T19:56:28.009Z,1306
2023-04-07T20:01:46.566Z,1339
2023-04-07T20:07:06.391Z,1400
2023-04-07T20:12:25.037Z,1427
2023-04-07T20:17:43.291Z,1457
2023-04-07T20:22:47.455Z,1475
2023-04-07T20:28:05.981Z,1489
2023-04-07T20:33:24.170Z,1496
2023-04-07T20:38:42.515Z,1521
2023-04-07T20:44:00.521Z,1529
2023-04-07T20:49:18.719Z,1554
2023-04-07T20:54:36.746Z,1570
2023-04-07T20:59:54.916Z,1578
2023-04-07T21:05:13.180Z,1581
2023-04-07T21:10:31.301Z,1590
2023-04-07T21:15:49.680Z,1594
2023-04-07T21:21:07.725Z,1608
2023-04-07T21:26:25.849Z,1607
2023-04-07T21:31:44.436Z,1617
2023-04-07T21:37:02.891Z,1621
2023-04-07T21:42:21.231Z,1631
2023-04-07T21:47:39.411Z,1633
2023-04-07T21:52:57.719Z,1629
2023-04-07T21:58:15.978Z,1631
2023-04-07T22:03:34.598Z,1640
2023-04-07T22:09:01.012Z,1646
2023-04-07T22:14:20.783Z,1645
2023-04-07T22:19:39.097Z,1644
2023-04-07T22:24:57.473Z,1650
2023-04-07T22:30:15.644Z,1658
2023-04-07T22:35:33.964Z,1653
2023-04-07T22:40:52.053Z,1654
2023-04-07T22:46:10.242Z,1655
2023-04-07T22:51:28.574Z,1656
2023-04-07T22:56:46.738Z,1656
2023-04-07T23:02:04.971Z,1641
2023-04-07T23:07:23.087Z,1648
2023-04-07T23:12:41.519Z,1647
2023-04-07T23:17:59.971Z,1638
2023-04-07T23:23:18.233Z,1644
2023-04-07T23:28:36.609Z,1650
2023-04-07T23:33:54.792Z,1658
2023-04-07T23:39:13.024Z,1656
2023-04-07T23:44:31.184Z,1656
2023-04-07T23:49:49.432Z,1672
2023-04-07T23:55:07.558Z,1684
